sensor_id;sensor_type;location;lat;lon;timestamp;temperature;humidity
18880;DHT22;9572;52.378;13.404;2024-03-06T00:02:10;1.00;99.90
18880;DHT22;9572;52.378;13.404;2024-03-06T00:04:38;1.00;99.90
18880;DHT22;9572;52.378;13.404;2024-03-06T00:07:05;0.90;99.90
18880;DHT22;9572;52.378;13.404;2024-03-06T00:09:32;0.90;99.90
18880;DHT22;9572;52.378;13.404;2024-03-06T00:11:59;0.90;99.90
18880;DHT22;9572;52.378;13.404;2024-03-06T00:14:26;0.90;99.90
18880;DHT22;9572;52.378;13.404;2024-03-06T00:16:53;0.90;99.90
18880;DHT22;9572;52.378;13.404;2024-03-06T00:19:21;0.90;99.90
18880;DHT22;9572;52.378;13.404;2024-03-06T00:21:50;0.80;99.90
18880;DHT22;9572;52.378;13.404;2024-03-06T00:24:16;0.80;99.90
18880;DHT22;9572;52.378;13.404;2024-03-06T00:26:44;0.80;99.90
18880;DHT22;9572;52.378;13.404;2024-03-06T00:29:12;0.80;99.90
18880;DHT22;9572;52.378;13.404;2024-03-06T00:31:42;0.80;99.90
18880;DHT22;9572;52.378;13.404;2024-03-06T00:34:09;0.80;99.90
18880;DHT22;9572;52.378;13.404;2024-03-06T00:36:37;0.80;99.90
18880;DHT22;9572;52.378;13.404;2024-03-06T00:39:05;0.80;99.90
18880;DHT22;9572;52.378;13.404;2024-03-06T00:41:33;0.80;99.90
18880;DHT22;9572;52.378;13.404;2024-03-06T00:44:01;0.80;99.90
18880;DHT22;9572;52.378;13.404;2024-03-06T00:46:28;0.80;99.90
18880;DHT22;9572;52.378;13.404;2024-03-06T00:48:55;0.80;99.90
18880;DHT22;9572;52.378;13.404;2024-03-06T00:51:22;0.80;99.90
18880;DHT22;9572;52.378;13.404;2024-03-06T00:53:48;0.80;99.90
18880;DHT22;9572;52.378;13.404;2024-03-06T00:56:17;0.80;99.90
18880;DHT22;9572;52.378;13.404;2024-03-06T00:58:43;0.70;99.90
18880;DHT22;9572;52.378;13.404;2024-03-06T01:01:09;0.70;99.90
18880;DHT22;9572;52.378;13.404;2024-03-06T01:03:37;0.80;99.90
18880;DHT22;9572;52.378;13.404;2024-03-06T01:06:04;0.70;99.90
18880;DHT22;9572;52.378;13.404;2024-03-06T01:08:31;0.70;99.90
18880;DHT22;9572;52.378;13.404;2024-03-06T01:10:58;0.70;99.90
18880;DHT22;9572;52.378;13.404;2024-03-06T01:13:26;0.80;99.90
18880;DHT22;9572;52.378;13.404;2024-03-06T01:15:53;0.70;99.90
18880;DHT22;9572;52.378;13.404;2024-03-06T01:18:20;0.70;99.90
18880;DHT22;9572;52.378;13.404;2024-03-06T01:20:47;0.70;99.90
18880;DHT22;9572;52.378;13.404;2024-03-06T01:23:14;0.70;99.90
18880;DHT22;9572;52.378;13.404;2024-03-06T01:25:42;0.70;99.90
18880;DHT22;9572;52.378;13.404;2024-03-06T01:28:09;0.70;99.90
18880;DHT22;9572;52.378;13.404;2024-03-06T01:30:37;0.60;99.90
18880;DHT22;9572;52.378;13.404;2024-03-06T01:33:04;0.60;99.90
18880;DHT22;9572;52.378;13.404;2024-03-06T01:35:31;0.60;99.90
18880;DHT22;9572;52.378;13.404;2024-03-06T01:37:58;0.60;99.90
18880;DHT22;9572;52.378;13.404;2024-03-06T01:40:27;0.50;99.90
18880;DHT22;9572;52.378;13.404;2024-03-06T01:42:54;0.60;99.90
18880;DHT22;9572;52.378;13.404;2024-03-06T01:45:21;0.60;99.90
18880;DHT22;9572;52.378;13.404;2024-03-06T01:47:49;0.60;99.90
18880;DHT22;9572;52.378;13.404;2024-03-06T01:50:17;0.50;99.90
18880;DHT22;9572;52.378;13.404;2024-03-06T01:52:46;0.50;99.90
18880;DHT22;9572;52.378;13.404;2024-03-06T01:55:13;0.50;99.90
18880;DHT22;9572;52.378;13.404;2024-03-06T01:57:41;0.50;99.90
18880;DHT22;9572;52.378;13.404;2024-03-06T02:00:09;0.50;99.90
18880;DHT22;9572;52.378;13.404;2024-03-06T02:02:40;0.50;99.90
18880;DHT22;9572;52.378;13.404;2024-03-06T02:05:09;0.50;99.90
18880;DHT22;9572;52.378;13.404;2024-03-06T02:07:38;0.50;99.90
18880;DHT22;9572;52.378;13.404;2024-03-06T02:10:07;0.50;99.90
18880;DHT22;9572;52.378;13.404;2024-03-06T02:12:35;0.50;99.90
18880;DHT22;9572;52.378;13.404;2024-03-06T02:15:02;0.40;99.90
18880;DHT22;9572;52.378;13.404;2024-03-06T02:17:29;0.40;99.90
18880;DHT22;9572;52.378;13.404;2024-03-06T02:19:56;0.40;99.90
18880;DHT22;9572;52.378;13.404;2024-03-06T02:22:26;0.40;99.90
18880;DHT22;9572;52.378;13.404;2024-03-06T02:24:52;0.40;99.90
18880;DHT22;9572;52.378;13.404;2024-03-06T02:27:19;0.40;99.90
18880;DHT22;9572;52.378;13.404;2024-03-06T02:29:46;0.30;99.90
18880;DHT22;9572;52.378;13.404;2024-03-06T02:32:13;0.40;99.90
18880;DHT22;9572;52.378;13.404;2024-03-06T02:34:40;0.30;99.90
18880;DHT22;9572;52.378;13.404;2024-03-06T02:37:07;0.30;99.90
18880;DHT22;9572;52.378;13.404;2024-03-06T02:39:36;0.30;99.90
18880;DHT22;9572;52.378;13.404;2024-03-06T02:42:03;0.30;99.90
18880;DHT22;9572;52.378;13.404;2024-03-06T02:44:30;0.30;99.90
18880;DHT22;9572;52.378;13.404;2024-03-06T02:46:57;0.30;99.90
18880;DHT22;9572;52.378;13.404;2024-03-06T02:49:24;0.30;99.90
18880;DHT22;9572;52.378;13.404;2024-03-06T02:51:51;0.30;99.90
18880;DHT22;9572;52.378;13.404;2024-03-06T02:54:18;0.30;99.90
18880;DHT22;9572;52.378;13.404;2024-03-06T02:56:46;0.20;99.90
18880;DHT22;9572;52.378;13.404;2024-03-06T02:59:13;0.20;99.90
18880;DHT22;9572;52.378;13.404;2024-03-06T03:01:40;0.20;99.90
18880;DHT22;9572;52.378;13.404;2024-03-06T03:04:07;0.30;99.90
18880;DHT22;9572;52.378;13.404;2024-03-06T03:06:34;0.20;99.90
18880;DHT22;9572;52.378;13.404;2024-03-06T03:09:01;0.20;99.90
18880;DHT22;9572;52.378;13.404;2024-03-06T03:11:29;0.30;99.90
18880;DHT22;9572;52.378;13.404;2024-03-06T03:13:58;0.30;99.90
18880;DHT22;9572;52.378;13.404;2024-03-06T03:16:25;0.20;99.90
18880;DHT22;9572;52.378;13.404;2024-03-06T03:18:52;0.20;99.90
18880;DHT22;9572;52.378;13.404;2024-03-06T03:21:19;0.20;99.90
18880;DHT22;9572;52.378;13.404;2024-03-06T03:23:47;0.20;99.90
18880;DHT22;9572;52.378;13.404;2024-03-06T03:26:14;0.20;99.90
18880;DHT22;9572;52.378;13.404;2024-03-06T03:28:41;0.20;99.90
18880;DHT22;9572;52.378;13.404;2024-03-06T03:31:09;0.20;99.90
18880;DHT22;9572;52.378;13.404;2024-03-06T03:33:39;0.20;99.90
18880;DHT22;9572;52.378;13.404;2024-03-06T03:36:07;0.20;99.90
18880;DHT22;9572;52.378;13.404;2024-03-06T03:38:34;0.20;99.90
18880;DHT22;9572;52.378;13.404;2024-03-06T03:41:07;0.20;99.90
18880;DHT22;9572;52.378;13.404;2024-03-06T03:43:34;0.20;99.90
18880;DHT22;9572;52.378;13.404;2024-03-06T03:46:01;0.20;99.90
18880;DHT22;9572;52.378;13.404;2024-03-06T03:48:29;0.20;99.90
18880;DHT22;9572;52.378;13.404;2024-03-06T03:50:56;0.20;99.90
18880;DHT22;9572;52.378;13.404;2024-03-06T03:53:22;0.20;99.90
18880;DHT22;9572;52.378;13.404;2024-03-06T03:55:49;0.20;99.90
18880;DHT22;9572;52.378;13.404;2024-03-06T03:58:17;0.10;99.90
18880;DHT22;9572;52.378;13.404;2024-03-06T04:00:43;0.10;99.90
18880;DHT22;9572;52.378;13.404;2024-03-06T04:03:10;0.10;99.90
18880;DHT22;9572;52.378;13.404;2024-03-06T04:05:39;0.10;99.90
18880;DHT22;9572;52.378;13.404;2024-03-06T04:08:06;0.10;99.90
18880;DHT22;9572;52.378;13.404;2024-03-06T04:10:33;0.10;99.90
18880;DHT22;9572;52.378;13.404;2024-03-06T04:13:00;0.10;99.90
18880;DHT22;9572;52.378;13.404;2024-03-06T04:15:27;0.10;99.90
18880;DHT22;9572;52.378;13.404;2024-03-06T04:17:54;0.10;99.90
18880;DHT22;9572;52.378;13.404;2024-03-06T04:20:20;0.10;99.90
18880;DHT22;9572;52.378;13.404;2024-03-06T04:22:49;0.10;99.90
18880;DHT22;9572;52.378;13.404;2024-03-06T04:25:16;0.10;99.90
18880;DHT22;9572;52.378;13.404;2024-03-06T04:27:44;0.10;99.90
18880;DHT22;9572;52.378;13.404;2024-03-06T04:30:11;0.00;99.90
18880;DHT22;9572;52.378;13.404;2024-03-06T04:32:38;0.10;99.90
18880;DHT22;9572;52.378;13.404;2024-03-06T04:35:06;0.10;99.90
18880;DHT22;9572;52.378;13.404;2024-03-06T04:37:35;0.00;99.90
18880;DHT22;9572;52.378;13.404;2024-03-06T04:40:04;0.00;99.90
18880;DHT22;9572;52.378;13.404;2024-03-06T04:42:33;0.00;99.90
18880;DHT22;9572;52.378;13.404;2024-03-06T04:45:01;0.00;99.90
18880;DHT22;9572;52.378;13.404;2024-03-06T04:47:28;0.00;99.90
18880;DHT22;9572;52.378;13.404;2024-03-06T04:49:55;-0.10;99.90
18880;DHT22;9572;52.378;13.404;2024-03-06T04:52:23;0.00;99.90
18880;DHT22;9572;52.378;13.404;2024-03-06T04:54:50;0.00;99.90
18880;DHT22;9572;52.378;13.404;2024-03-06T04:57:18;0.00;99.90
18880;DHT22;9572;52.378;13.404;2024-03-06T04:59:45;0.00;99.90
18880;DHT22;9572;52.378;13.404;2024-03-06T05:02:12;0.00;99.90
18880;DHT22;9572;52.378;13.404;2024-03-06T05:04:38;0.00;99.90
18880;DHT22;9572;52.378;13.404;2024-03-06T05:07:05;0.10;99.90
18880;DHT22;9572;52.378;13.404;2024-03-06T05:09:32;0.10;99.90
18880;DHT22;9572;52.378;13.404;2024-03-06T05:12:00;0.10;99.90
18880;DHT22;9572;52.378;13.404;2024-03-06T05:14:28;0.00;99.90
18880;DHT22;9572;52.378;13.404;2024-03-06T05:16:55;0.00;99.90
18880;DHT22;9572;52.378;13.404;2024-03-06T05:19:22;0.00;99.90
18880;DHT22;9572;52.378;13.404;2024-03-06T05:21:49;0.10;99.90
18880;DHT22;9572;52.378;13.404;2024-03-06T05:24:16;0.00;99.90
18880;DHT22;9572;52.378;13.404;2024-03-06T05:26:43;0.10;99.90
18880;DHT22;9572;52.378;13.404;2024-03-06T05:29:10;0.00;99.90
18880;DHT22;9572;52.378;13.404;2024-03-06T05:31:38;0.00;99.90
18880;DHT22;9572;52.378;13.404;2024-03-06T05:34:05;0.00;99.90
18880;DHT22;9572;52.378;13.404;2024-03-06T05:36:32;0.00;99.90
18880;DHT22;9572;52.378;13.404;2024-03-06T05:38:58;0.00;99.90
18880;DHT22;9572;52.378;13.404;2024-03-06T05:41:25;0.10;99.90
18880;DHT22;9572;52.378;13.404;2024-03-06T05:43:52;0.10;99.90
18880;DHT22;9572;52.378;13.404;2024-03-06T05:46:19;0.10;99.90
18880;DHT22;9572;52.378;13.404;2024-03-06T05:48:47;0.00;99.90
18880;DHT22;9572;52.378;13.404;2024-03-06T05:51:15;0.00;99.90
18880;DHT22;9572;52.378;13.404;2024-03-06T05:53:42;0.00;99.90
18880;DHT22;9572;52.378;13.404;2024-03-06T05:56:09;0.00;99.90
18880;DHT22;9572;52.378;13.404;2024-03-06T05:58:36;-0.10;99.90
18880;DHT22;9572;52.378;13.404;2024-03-06T06:01:03;-0.10;99.90
18880;DHT22;9572;52.378;13.404;2024-03-06T06:03:30;-0.10;99.90
18880;DHT22;9572;52.378;13.404;2024-03-06T06:05:59;0.00;99.90
18880;DHT22;9572;52.378;13.404;2024-03-06T06:08:26;0.00;99.90
18880;DHT22;9572;52.378;13.404;2024-03-06T06:10:52;0.10;99.90
18880;DHT22;9572;52.378;13.404;2024-03-06T06:13:20;0.10;99.90
18880;DHT22;9572;52.378;13.404;2024-03-06T06:15:47;0.20;99.90
18880;DHT22;9572;52.378;13.404;2024-03-06T06:18:14;0.20;99.90
18880;DHT22;9572;52.378;13.404;2024-03-06T06:20:41;0.20;99.90
18880;DHT22;9572;52.378;13.404;2024-03-06T06:23:10;0.20;99.90
18880;DHT22;9572;52.378;13.404;2024-03-06T06:25:36;0.30;99.90
18880;DHT22;9572;52.378;13.404;2024-03-06T06:28:04;0.30;99.90
18880;DHT22;9572;52.378;13.404;2024-03-06T06:30:31;0.40;99.90
18880;DHT22;9572;52.378;13.404;2024-03-06T06:32:58;0.50;99.90
18880;DHT22;9572;52.378;13.404;2024-03-06T06:35:25;0.60;99.90
18880;DHT22;9572;52.378;13.404;2024-03-06T06:37:53;0.70;99.90
18880;DHT22;9572;52.378;13.404;2024-03-06T06:40:21;0.70;99.90
18880;DHT22;9572;52.378;13.404;2024-03-06T06:42:49;0.80;99.90
18880;DHT22;9572;52.378;13.404;2024-03-06T06:45:17;0.80;99.90
18880;DHT22;9572;52.378;13.404;2024-03-06T06:47:44;0.90;99.90
18880;DHT22;9572;52.378;13.404;2024-03-06T06:50:12;1.00;99.90
18880;DHT22;9572;52.378;13.404;2024-03-06T06:52:39;1.10;99.90
18880;DHT22;9572;52.378;13.404;2024-03-06T06:55:06;1.20;99.90
18880;DHT22;9572;52.378;13.404;2024-03-06T06:57:36;1.20;99.90
18880;DHT22;9572;52.378;13.404;2024-03-06T07:00:04;1.30;99.90
18880;DHT22;9572;52.378;13.404;2024-03-06T07:02:36;1.40;99.90
18880;DHT22;9572;52.378;13.404;2024-03-06T07:05:04;1.60;99.90
18880;DHT22;9572;52.378;13.404;2024-03-06T07:07:31;1.90;99.90
18880;DHT22;9572;52.378;13.404;2024-03-06T07:09:58;2.00;99.90
18880;DHT22;9572;52.378;13.404;2024-03-06T07:12:25;1.90;99.90
18880;DHT22;9572;52.378;13.404;2024-03-06T07:14:53;2.00;99.90
18880;DHT22;9572;52.378;13.404;2024-03-06T07:17:20;2.00;99.90
18880;DHT22;9572;52.378;13.404;2024-03-06T07:19:47;2.10;99.90
18880;DHT22;9572;52.378;13.404;2024-03-06T07:22:14;2.40;99.90
18880;DHT22;9572;52.378;13.404;2024-03-06T07:24:40;2.60;99.90
18880;DHT22;9572;52.378;13.404;2024-03-06T07:27:08;2.60;99.90
18880;DHT22;9572;52.378;13.404;2024-03-06T07:29:34;2.50;99.90
18880;DHT22;9572;52.378;13.404;2024-03-06T07:32:03;2.30;99.90
18880;DHT22;9572;52.378;13.404;2024-03-06T07:34:31;2.10;99.90
18880;DHT22;9572;52.378;13.404;2024-03-06T07:36:58;2.10;99.90
18880;DHT22;9572;52.378;13.404;2024-03-06T07:39:25;2.00;99.90
18880;DHT22;9572;52.378;13.404;2024-03-06T07:41:52;1.90;99.90
18880;DHT22;9572;52.378;13.404;2024-03-06T07:44:20;1.90;99.90
18880;DHT22;9572;52.378;13.404;2024-03-06T07:46:46;1.90;99.90
18880;DHT22;9572;52.378;13.404;2024-03-06T07:49:15;2.00;99.90
18880;DHT22;9572;52.378;13.404;2024-03-06T07:51:42;2.00;99.90
18880;DHT22;9572;52.378;13.404;2024-03-06T07:54:09;2.00;99.90
18880;DHT22;9572;52.378;13.404;2024-03-06T07:56:36;2.10;99.90
18880;DHT22;9572;52.378;13.404;2024-03-06T07:59:03;2.10;99.90
18880;DHT22;9572;52.378;13.404;2024-03-06T08:01:31;2.20;99.90
18880;DHT22;9572;52.378;13.404;2024-03-06T08:03:58;2.30;99.90
18880;DHT22;9572;52.378;13.404;2024-03-06T08:06:26;2.50;99.90
18880;DHT22;9572;52.378;13.404;2024-03-06T08:08:54;2.50;99.90
18880;DHT22;9572;52.378;13.404;2024-03-06T08:11:21;2.40;99.90
18880;DHT22;9572;52.378;13.404;2024-03-06T08:13:50;2.50;99.90
18880;DHT22;9572;52.378;13.404;2024-03-06T08:16:17;2.60;99.90
18880;DHT22;9572;52.378;13.404;2024-03-06T08:18:44;2.60;99.90
18880;DHT22;9572;52.378;13.404;2024-03-06T08:21:10;2.60;99.90
18880;DHT22;9572;52.378;13.404;2024-03-06T08:23:39;2.50;99.90
18880;DHT22;9572;52.378;13.404;2024-03-06T08:26:05;2.60;99.90
18880;DHT22;9572;52.378;13.404;2024-03-06T08:28:32;2.60;99.90
18880;DHT22;9572;52.378;13.404;2024-03-06T08:31:00;2.70;99.90
18880;DHT22;9572;52.378;13.404;2024-03-06T08:33:27;2.80;99.90
18880;DHT22;9572;52.378;13.404;2024-03-06T08:35:54;3.00;99.90
18880;DHT22;9572;52.378;13.404;2024-03-06T08:38:21;3.20;99.90
18880;DHT22;9572;52.378;13.404;2024-03-06T08:40:49;3.30;99.90
18880;DHT22;9572;52.378;13.404;2024-03-06T08:43:16;3.40;99.90
18880;DHT22;9572;52.378;13.404;2024-03-06T08:45:45;3.30;99.90
18880;DHT22;9572;52.378;13.404;2024-03-06T08:48:11;3.50;99.90
18880;DHT22;9572;52.378;13.404;2024-03-06T08:50:38;3.40;99.90
18880;DHT22;9572;52.378;13.404;2024-03-06T08:53:05;3.50;99.90
18880;DHT22;9572;52.378;13.404;2024-03-06T08:55:32;3.50;99.90
18880;DHT22;9572;52.378;13.404;2024-03-06T08:58:00;3.40;99.90
18880;DHT22;9572;52.378;13.404;2024-03-06T09:00:27;3.40;99.90
18880;DHT22;9572;52.378;13.404;2024-03-06T09:02:54;3.40;99.90
18880;DHT22;9572;52.378;13.404;2024-03-06T09:05:21;3.50;99.90
18880;DHT22;9572;52.378;13.404;2024-03-06T09:07:48;3.60;99.90
18880;DHT22;9572;52.378;13.404;2024-03-06T09:10:15;3.80;99.90
18880;DHT22;9572;52.378;13.404;2024-03-06T09:12:42;3.90;99.90
18880;DHT22;9572;52.378;13.404;2024-03-06T09:15:11;4.00;99.90
18880;DHT22;9572;52.378;13.404;2024-03-06T09:17:38;4.00;99.90
18880;DHT22;9572;52.378;13.404;2024-03-06T09:20:06;4.00;99.90
18880;DHT22;9572;52.378;13.404;2024-03-06T09:22:36;4.00;99.90
18880;DHT22;9572;52.378;13.404;2024-03-06T09:25:04;4.10;99.90
18880;DHT22;9572;52.378;13.404;2024-03-06T09:27:32;4.20;99.90
18880;DHT22;9572;52.378;13.404;2024-03-06T09:29:59;4.30;99.90
18880;DHT22;9572;52.378;13.404;2024-03-06T09:32:27;4.50;99.90
18880;DHT22;9572;52.378;13.404;2024-03-06T09:34:54;4.60;99.90
18880;DHT22;9572;52.378;13.404;2024-03-06T09:37:20;4.70;99.90
18880;DHT22;9572;52.378;13.404;2024-03-06T09:39:47;4.80;99.90
18880;DHT22;9572;52.378;13.404;2024-03-06T09:42:14;4.90;99.90
18880;DHT22;9572;52.378;13.404;2024-03-06T09:44:42;5.00;99.90
18880;DHT22;9572;52.378;13.404;2024-03-06T09:47:13;5.10;99.90
18880;DHT22;9572;52.378;13.404;2024-03-06T09:49:42;5.10;99.90
18880;DHT22;9572;52.378;13.404;2024-03-06T09:52:09;5.10;99.90
18880;DHT22;9572;52.378;13.404;2024-03-06T09:54:37;5.10;99.90
18880;DHT22;9572;52.378;13.404;2024-03-06T09:57:05;5.20;99.90
18880;DHT22;9572;52.378;13.404;2024-03-06T09:59:32;5.30;99.90
18880;DHT22;9572;52.378;13.404;2024-03-06T10:02:00;5.40;99.90
18880;DHT22;9572;52.378;13.404;2024-03-06T10:04:29;5.50;99.90
18880;DHT22;9572;52.378;13.404;2024-03-06T10:07:01;5.60;99.90
18880;DHT22;9572;52.378;13.404;2024-03-06T10:09:28;5.60;99.90
18880;DHT22;9572;52.378;13.404;2024-03-06T10:11:57;5.70;99.90
18880;DHT22;9572;52.378;13.404;2024-03-06T10:14:24;5.80;99.90
18880;DHT22;9572;52.378;13.404;2024-03-06T10:16:54;5.90;99.90
18880;DHT22;9572;52.378;13.404;2024-03-06T10:19:23;5.90;99.90
18880;DHT22;9572;52.378;13.404;2024-03-06T10:21:50;5.80;99.90
18880;DHT22;9572;52.378;13.404;2024-03-06T10:24:23;6.00;99.90
18880;DHT22;9572;52.378;13.404;2024-03-06T10:26:51;6.10;99.90
18880;DHT22;9572;52.378;13.404;2024-03-06T10:29:20;6.10;99.90
18880;DHT22;9572;52.378;13.404;2024-03-06T10:31:49;6.00;99.90
18880;DHT22;9572;52.378;13.404;2024-03-06T10:34:16;6.10;99.90
18880;DHT22;9572;52.378;13.404;2024-03-06T10:36:44;6.30;99.90
18880;DHT22;9572;52.378;13.404;2024-03-06T10:39:11;6.80;99.90
18880;DHT22;9572;52.378;13.404;2024-03-06T10:41:44;7.60;99.90
18880;DHT22;9572;52.378;13.404;2024-03-06T10:44:12;8.20;99.90
18880;DHT22;9572;52.378;13.404;2024-03-06T10:46:44;8.50;99.90
18880;DHT22;9572;52.378;13.404;2024-03-06T10:49:13;9.00;99.90
18880;DHT22;9572;52.378;13.404;2024-03-06T10:51:40;9.10;99.90
18880;DHT22;9572;52.378;13.404;2024-03-06T10:54:09;9.20;99.90
18880;DHT22;9572;52.378;13.404;2024-03-06T10:56:38;9.20;99.90
18880;DHT22;9572;52.378;13.404;2024-03-06T10:59:10;8.90;99.90
18880;DHT22;9572;52.378;13.404;2024-03-06T11:01:39;8.80;99.90
18880;DHT22;9572;52.378;13.404;2024-03-06T11:04:06;8.70;99.90
18880;DHT22;9572;52.378;13.404;2024-03-06T11:06:34;8.60;99.90
18880;DHT22;9572;52.378;13.404;2024-03-06T11:09:01;8.50;99.90
18880;DHT22;9572;52.378;13.404;2024-03-06T11:11:29;8.40;99.90
18880;DHT22;9572;52.378;13.404;2024-03-06T11:14:00;8.10;99.90
18880;DHT22;9572;52.378;13.404;2024-03-06T11:16:30;7.70;99.90
18880;DHT22;9572;52.378;13.404;2024-03-06T11:19:06;7.60;99.90
18880;DHT22;9572;52.378;13.404;2024-03-06T11:21:34;7.50;99.90
18880;DHT22;9572;52.378;13.404;2024-03-06T11:24:21;7.50;99.90
18880;DHT22;9572;52.378;13.404;2024-03-06T11:26:55;7.50;99.90
18880;DHT22;9572;52.378;13.404;2024-03-06T11:29:28;7.50;99.90
18880;DHT22;9572;52.378;13.404;2024-03-06T11:32:04;7.60;99.90
18880;DHT22;9572;52.378;13.404;2024-03-06T11:34:33;7.70;99.90
18880;DHT22;9572;52.378;13.404;2024-03-06T11:37:03;8.00;99.90
18880;DHT22;9572;52.378;13.404;2024-03-06T11:39:35;8.30;99.90
18880;DHT22;9572;52.378;13.404;2024-03-06T11:42:03;8.50;99.90
18880;DHT22;9572;52.378;13.404;2024-03-06T11:44:34;8.60;99.90
18880;DHT22;9572;52.378;13.404;2024-03-06T11:47:03;8.60;99.90
18880;DHT22;9572;52.378;13.404;2024-03-06T11:49:32;8.50;99.90
18880;DHT22;9572;52.378;13.404;2024-03-06T11:52:01;8.50;99.90
18880;DHT22;9572;52.378;13.404;2024-03-06T11:54:29;8.50;99.90
18880;DHT22;9572;52.378;13.404;2024-03-06T11:56:57;8.40;99.90
18880;DHT22;9572;52.378;13.404;2024-03-06T11:59:24;8.20;99.90
18880;DHT22;9572;52.378;13.404;2024-03-06T12:01:51;8.10;99.90
18880;DHT22;9572;52.378;13.404;2024-03-06T12:04:22;8.10;99.90
18880;DHT22;9572;52.378;13.404;2024-03-06T12:06:50;8.20;99.90
18880;DHT22;9572;52.378;13.404;2024-03-06T12:09:17;8.30;99.90
18880;DHT22;9572;52.378;13.404;2024-03-06T12:11:44;8.50;99.90
18880;DHT22;9572;52.378;13.404;2024-03-06T12:14:16;8.50;99.90
18880;DHT22;9572;52.378;13.404;2024-03-06T12:16:43;8.60;99.90
18880;DHT22;9572;52.378;13.404;2024-03-06T12:19:11;8.60;99.90
18880;DHT22;9572;52.378;13.404;2024-03-06T12:21:39;8.50;99.90
18880;DHT22;9572;52.378;13.404;2024-03-06T12:24:07;8.40;99.90
18880;DHT22;9572;52.378;13.404;2024-03-06T12:26:35;8.30;99.90
18880;DHT22;9572;52.378;13.404;2024-03-06T12:29:06;8.30;99.90
18880;DHT22;9572;52.378;13.404;2024-03-06T12:31:35;8.40;99.90
18880;DHT22;9572;52.378;13.404;2024-03-06T12:34:02;8.40;99.90
18880;DHT22;9572;52.378;13.404;2024-03-06T12:36:29;8.50;99.90
18880;DHT22;9572;52.378;13.404;2024-03-06T12:39:03;8.50;99.90
18880;DHT22;9572;52.378;13.404;2024-03-06T12:41:38;8.60;99.90
18880;DHT22;9572;52.378;13.404;2024-03-06T12:44:05;8.70;99.90
18880;DHT22;9572;52.378;13.404;2024-03-06T12:46:33;8.80;99.90
18880;DHT22;9572;52.378;13.404;2024-03-06T12:49:00;9.00;99.90
18880;DHT22;9572;52.378;13.404;2024-03-06T12:51:27;9.10;99.90
18880;DHT22;9572;52.378;13.404;2024-03-06T12:53:54;9.10;99.90
18880;DHT22;9572;52.378;13.404;2024-03-06T12:56:22;9.20;99.90
18880;DHT22;9572;52.378;13.404;2024-03-06T12:58:50;9.20;99.90
18880;DHT22;9572;52.378;13.404;2024-03-06T13:01:17;9.00;99.90
18880;DHT22;9572;52.378;13.404;2024-03-06T13:03:45;9.10;99.90
18880;DHT22;9572;52.378;13.404;2024-03-06T13:06:12;9.10;99.90
18880;DHT22;9572;52.378;13.404;2024-03-06T13:08:39;8.90;99.90
18880;DHT22;9572;52.378;13.404;2024-03-06T13:11:06;8.80;99.90
18880;DHT22;9572;52.378;13.404;2024-03-06T13:13:36;8.80;99.90
18880;DHT22;9572;52.378;13.404;2024-03-06T13:16:03;9.00;99.90
18880;DHT22;9572;52.378;13.404;2024-03-06T13:18:30;9.00;99.90
18880;DHT22;9572;52.378;13.404;2024-03-06T13:20:57;8.80;99.90
18880;DHT22;9572;52.378;13.404;2024-03-06T13:23:26;8.80;99.90
18880;DHT22;9572;52.378;13.404;2024-03-06T13:25:53;8.80;99.90
18880;DHT22;9572;52.378;13.404;2024-03-06T13:28:19;8.80;99.90
18880;DHT22;9572;52.378;13.404;2024-03-06T13:30:48;8.80;99.90
18880;DHT22;9572;52.378;13.404;2024-03-06T13:33:17;8.90;99.90
18880;DHT22;9572;52.378;13.404;2024-03-06T13:35:43;9.00;99.90
18880;DHT22;9572;52.378;13.404;2024-03-06T13:38:10;8.90;99.90
18880;DHT22;9572;52.378;13.404;2024-03-06T13:40:37;8.80;99.90
18880;DHT22;9572;52.378;13.404;2024-03-06T13:43:05;8.70;99.90
18880;DHT22;9572;52.378;13.404;2024-03-06T13:45:32;8.50;99.90
18880;DHT22;9572;52.378;13.404;2024-03-06T13:48:00;8.50;99.90
18880;DHT22;9572;52.378;13.404;2024-03-06T13:50:27;8.50;99.90
18880;DHT22;9572;52.378;13.404;2024-03-06T13:52:55;8.60;99.90
18880;DHT22;9572;52.378;13.404;2024-03-06T13:55:22;8.60;99.90
18880;DHT22;9572;52.378;13.404;2024-03-06T13:57:49;8.60;99.90
18880;DHT22;9572;52.378;13.404;2024-03-06T14:00:17;8.50;99.90
18880;DHT22;9572;52.378;13.404;2024-03-06T14:02:44;8.40;99.90
18880;DHT22;9572;52.378;13.404;2024-03-06T14:05:14;8.20;99.90
18880;DHT22;9572;52.378;13.404;2024-03-06T14:07:41;8.10;99.90
18880;DHT22;9572;52.378;13.404;2024-03-06T14:10:08;8.00;99.90
18880;DHT22;9572;52.378;13.404;2024-03-06T14:12:36;8.00;99.90
18880;DHT22;9572;52.378;13.404;2024-03-06T14:15:04;7.90;99.90
18880;DHT22;9572;52.378;13.404;2024-03-06T14:17:34;7.90;99.90
18880;DHT22;9572;52.378;13.404;2024-03-06T14:20:01;7.80;99.90
18880;DHT22;9572;52.378;13.404;2024-03-06T14:22:30;7.80;99.90
18880;DHT22;9572;52.378;13.404;2024-03-06T14:24:57;7.90;99.90
18880;DHT22;9572;52.378;13.404;2024-03-06T14:27:24;7.80;99.90
18880;DHT22;9572;52.378;13.404;2024-03-06T14:29:51;7.80;99.90
18880;DHT22;9572;52.378;13.404;2024-03-06T14:32:20;7.70;99.90
18880;DHT22;9572;52.378;13.404;2024-03-06T14:34:46;7.70;99.90
18880;DHT22;9572;52.378;13.404;2024-03-06T14:37:13;7.60;99.90
18880;DHT22;9572;52.378;13.404;2024-03-06T14:39:42;7.50;99.90
18880;DHT22;9572;52.378;13.404;2024-03-06T14:42:08;7.50;99.90
18880;DHT22;9572;52.378;13.404;2024-03-06T14:44:35;7.50;99.90
18880;DHT22;9572;52.378;13.404;2024-03-06T14:47:02;7.50;99.90
18880;DHT22;9572;52.378;13.404;2024-03-06T14:49:31;7.60;99.90
18880;DHT22;9572;52.378;13.404;2024-03-06T14:51:58;7.60;99.90
18880;DHT22;9572;52.378;13.404;2024-03-06T14:54:25;7.60;99.90
18880;DHT22;9572;52.378;13.404;2024-03-06T14:56:53;7.70;99.90
18880;DHT22;9572;52.378;13.404;2024-03-06T14:59:21;7.70;99.90
18880;DHT22;9572;52.378;13.404;2024-03-06T15:01:48;7.80;99.90
18880;DHT22;9572;52.378;13.404;2024-03-06T15:04:15;7.80;99.90
18880;DHT22;9572;52.378;13.404;2024-03-06T15:06:42;7.80;99.90
18880;DHT22;9572;52.378;13.404;2024-03-06T15:09:09;7.80;99.90
18880;DHT22;9572;52.378;13.404;2024-03-06T15:11:38;7.80;99.90
18880;DHT22;9572;52.378;13.404;2024-03-06T15:14:07;7.70;99.90
18880;DHT22;9572;52.378;13.404;2024-03-06T15:16:34;7.60;99.90
18880;DHT22;9572;52.378;13.404;2024-03-06T15:19:01;7.60;99.90
18880;DHT22;9572;52.378;13.404;2024-03-06T15:21:29;7.60;99.90
18880;DHT22;9572;52.378;13.404;2024-03-06T15:23:56;7.60;99.90
18880;DHT22;9572;52.378;13.404;2024-03-06T15:26:23;7.70;99.90
18880;DHT22;9572;52.378;13.404;2024-03-06T15:28:49;7.70;99.90
18880;DHT22;9572;52.378;13.404;2024-03-06T15:31:18;7.60;99.90
18880;DHT22;9572;52.378;13.404;2024-03-06T15:33:45;7.70;99.90
18880;DHT22;9572;52.378;13.404;2024-03-06T15:36:12;7.70;99.90
18880;DHT22;9572;52.378;13.404;2024-03-06T15:38:39;7.70;99.90
18880;DHT22;9572;52.378;13.404;2024-03-06T15:41:06;7.70;99.90
18880;DHT22;9572;52.378;13.404;2024-03-06T15:43:34;7.60;99.90
18880;DHT22;9572;52.378;13.404;2024-03-06T15:46:01;7.50;99.90
18880;DHT22;9572;52.378;13.404;2024-03-06T15:48:29;7.60;99.90